Skip Navigation Links Skip Navigation Links

Current Weather

Mc Carran Intl, Las Vegas, Nev.

For information only: do not use for flight planning or navigation.
Latest weather
Observation time Thursday, November 21, 2019 1:56 PM PST
Local time Thursday, November 21, 2019 2:28 PM PST
Flight conditions Visual Meteorological Conditions
Winds
Wind speed calm
Visibility 10 mi.
Sky condition
Ceiling 6,000 ft. broken clouds
Cloud layer few clouds 2,600 ft.
Cloud layer scattered clouds 3,200 ft.
Cloud layer broken clouds 6,000 ft.
Temperature 53°F
Dewpoint 38°F
Altimeter 29.90 in.Hg
Derived measurements
Relative humidity 56%
Density altitude 1928 ft.
Sea-level pressure 29.89 in.Hg
Remarks
Automated weather observing station with precipitation discriminator.
METAR KLAS 212156Z 00000KT 10SM FEW026 SCT032 BKN060 12/03 A2990 RMK AO2 SLP121 T01170033

Settings

Location code

InnerDrive.Weather 4.0.6770.0 Release CLR 4.0.30319.42000
Copyright ©2018 Inner Drive Technology. All rights reserved. Portions Copyright ©1986-2018 David Braverman.

Find weather

Site navigation


Skip Navigation Links

Place info

Page info

PayPal - The safer, easier way to pay online!

Return home.

Copyright ©2019 Inner Drive Technology. Purveyors of fine, hand-crafted computer software. Page printed 2019-11-21T22:28:02 UTC.